Time;durP1;ratioP1;P1;durP2;ratioP2;P2;SDS_P1;SDS_P2;PMS_P1;PMS_P2;Temp;Humidity;BMP_temperature;BMP_pressure;BME280_temperature;BME280_humidity;BME280_pressure;Samples;Min_cycle;Max_cycle;Signal;HPM_P1;HPM_P2
2021/03/07 00:02:13;;;;;;;7.63;4.97;;;;;;;;;;5037630;28;20189;-74
2021/03/07 00:05:18;;;;;;;6.13;3.78;;;;;;;;;;5041441;28;20217;-73
2021/03/07 00:08:22;;;;;;;6.97;4.47;;;;;;;;;;5044835;28;20197;-73
2021/03/07 00:11:26;;;;;;;7.10;4.00;;;;;;;;;;5033682;28;21228;-74
2021/03/07 00:14:30;;;;;;;5.95;4.20;;;;;;;;;;5026256;28;20227;-73
2021/03/07 00:17:35;;;;;;;6.78;3.88;;;;;;;;;;5029726;28;20180;-73
2021/03/07 00:20:39;;;;;;;4.47;3.65;;;;;;;;;;5053399;28;20207;-74
2021/03/07 00:23:43;;;;;;;6.03;4.30;;;;;;;;;;5021612;28;20185;-74
2021/03/07 00:26:47;;;;;;;6.22;3.60;;;;;;;;;;5032988;28;20583;-73
2021/03/07 00:29:59;;;;;;;5.50;3.53;;;;;;;;;;5022733;28;20212;-74
2021/03/07 00:33:03;;;;;;;5.50;3.70;;;;;;;;;;5038755;28;20189;-73
2021/03/07 00:36:07;;;;;;;5.25;3.85;;;;;;;;;;5038466;28;20184;-73
2021/03/07 00:39:12;;;;;;;6.93;3.92;;;;;;;;;;5033597;28;20544;-74
2021/03/07 00:42:16;;;;;;;5.85;3.90;;;;;;;;;;5046974;28;20195;-74
2021/03/07 00:45:21;;;;;;;9.27;4.43;;;;;;;;;;5040923;28;20631;-73
2021/03/07 00:48:25;;;;;;;7.90;4.07;;;;;;;;;;5049356;28;20180;-74
2021/03/07 00:51:29;;;;;;;6.13;4.23;;;;;;;;;;5039939;28;20215;-73
2021/03/07 00:54:34;;;;;;;7.03;4.43;;;;;;;;;;5052873;28;20614;-74
2021/03/07 00:57:38;;;;;;;7.18;4.00;;;;;;;;;;5034808;28;20200;-73
2021/03/07 01:00:45;;;;;;;7.20;4.20;;;;;;;;;;5021847;28;20204;-73
2021/03/07 01:03:49;;;;;;;5.95;4.43;;;;;;;;;;5021145;28;20205;-74
2021/03/07 01:06:54;;;;;;;5.85;3.90;;;;;;;;;;5021396;28;20184;-74
2021/03/07 01:09:58;;;;;;;5.50;4.35;;;;;;;;;;5032932;28;20208;-73
2021/03/07 01:13:07;;;;;;;8.60;3.90;;;;;;;;;;5033565;28;20536;-74
2021/03/07 01:16:11;;;;;;;5.97;4.18;;;;;;;;;;5037284;28;20180;-74
2021/03/07 01:19:15;;;;;;;9.38;4.53;;;;;;;;;;5024701;28;20200;-73
2021/03/07 01:22:19;;;;;;;7.22;3.97;;;;;;;;;;5027046;28;20197;-73
2021/03/07 01:25:26;;;;;;;6.53;4.13;;;;;;;;;;5024649;28;20184;-74
2021/03/07 01:28:30;;;;;;;8.05;4.55;;;;;;;;;;5024870;28;20176;-74
2021/03/07 01:31:35;;;;;;;9.13;4.68;;;;;;;;;;5037037;28;20555;-73
2021/03/07 01:34:39;;;;;;;7.30;4.53;;;;;;;;;;5047081;28;20185;-73
2021/03/07 01:37:43;;;;;;;6.35;4.10;;;;;;;;;;5053913;28;20192;-73
2021/03/07 01:40:50;;;;;;;7.17;4.43;;;;;;;;;;5050528;28;20220;-73
2021/03/07 01:43:54;;;;;;;6.97;4.13;;;;;;;;;;5024547;28;20551;-74
2021/03/07 01:46:58;;;;;;;6.75;4.20;;;;;;;;;;5046447;28;20200;-74
2021/03/07 01:50:02;;;;;;;7.28;4.50;;;;;;;;;;5039931;28;20212;-73
2021/03/07 01:53:06;;;;;;;5.22;4.05;;;;;;;;;;5036286;28;20200;-74
2021/03/07 01:56:11;;;;;;;6.82;4.30;;;;;;;;;;5024031;28;20209;-74
2021/03/07 01:59:22;;;;;;;8.00;4.72;;;;;;;;;;5036068;28;20208;-74
2021/03/07 02:02:28;;;;;;;6.28;4.03;;;;;;;;;;5024487;28;20196;-74
2021/03/07 02:05:32;;;;;;;8.02;4.60;;;;;;;;;;5024493;28;20200;-73
2021/03/07 02:08:36;;;;;;;6.82;4.80;;;;;;;;;;5029073;28;20659;-73
2021/03/07 02:11:41;;;;;;;7.50;4.45;;;;;;;;;;5038626;28;20220;-74
2021/03/07 02:14:48;;;;;;;8.75;4.78;;;;;;;;;;5037075;28;20201;-74
2021/03/07 02:17:53;;;;;;;7.57;4.47;;;;;;;;;;5042328;28;20520;-74
2021/03/07 02:21:05;;;;;;;7.25;4.65;;;;;;;;;;5023600;28;20224;-74
2021/03/07 02:24:11;;;;;;;5.82;4.20;;;;;;;;;;5035109;28;20196;-73
2021/03/07 02:27:15;;;;;;;6.93;4.50;;;;;;;;;;5036061;28;20631;-74
2021/03/07 02:30:19;;;;;;;6.10;4.20;;;;;;;;;;5036110;28;20212;-73
2021/03/07 02:33:36;;;;;;;6.47;4.68;;;;;;;;;;5052909;28;20188;-73
2021/03/07 02:36:45;;;;;;;6.60;4.43;;;;;;;;;;5052249;28;20200;-74
2021/03/07 02:39:50;;;;;;;6.95;4.63;;;;;;;;;;5055367;28;20706;-74
2021/03/07 02:42:57;;;;;;;7.85;5.03;;;;;;;;;;5055354;28;20204;-73
2021/03/07 02:46:01;;;;;;;9.15;4.88;;;;;;;;;;5044008;28;20659;-74
2021/03/07 02:49:10;;;;;;;8.95;4.75;;;;;;;;;;5035422;28;20196;-74
2021/03/07 02:52:15;;;;;;;8.18;4.55;;;;;;;;;;5046349;28;20200;-74
2021/03/07 02:55:21;;;;;;;8.27;4.95;;;;;;;;;;5037122;28;20204;-73
2021/03/07 02:58:25;;;;;;;7.82;4.95;;;;;;;;;;5035372;28;20188;-74
2021/03/07 03:01:30;;;;;;;8.02;4.97;;;;;;;;;;5034963;28;20208;-73
2021/03/07 03:04:36;;;;;;;6.40;4.78;;;;;;;;;;5036223;28;20200;-74
2021/03/07 03:07:42;;;;;;;10.18;4.75;;;;;;;;;;5049849;28;20192;-74
2021/03/07 03:10:49;;;;;;;6.95;4.40;;;;;;;;;;5054700;28;20718;-73
2021/03/07 03:13:53;;;;;;;7.47;4.43;;;;;;;;;;5055060;28;20176;-74
2021/03/07 03:16:59;;;;;;;7.50;4.68;;;;;;;;;;5054267;28;20188;-73
2021/03/07 03:20:07;;;;;;;6.93;4.40;;;;;;;;;;5042534;28;20228;-74
2021/03/07 03:23:11;;;;;;;7.53;4.28;;;;;;;;;;5031249;28;20630;-74
2021/03/07 03:26:17;;;;;;;7.57;4.63;;;;;;;;;;5026044;28;20192;-74
2021/03/07 03:29:22;;;;;;;5.13;3.72;;;;;;;;;;5033746;28;20188;-73
2021/03/07 03:32:29;;;;;;;6.85;4.13;;;;;;;;;;5042217;28;20176;-74
2021/03/07 03:35:33;;;;;;;19.48;7.93;;;;;;;;;;5043774;28;20189;-73
2021/03/07 03:38:41;;;;;;;15.40;6.15;;;;;;;;;;5022304;28;20516;-74
2021/03/07 03:41:48;;;;;;;10.60;5.38;;;;;;;;;;5035581;28;20555;-74
2021/03/07 03:44:58;;;;;;;9.93;4.35;;;;;;;;;;5036968;28;20197;-74
2021/03/07 03:48:13;;;;;;;8.43;4.65;;;;;;;;;;5034718;28;20181;-73
2021/03/07 03:51:19;;;;;;;6.28;4.43;;;;;;;;;;5034094;28;20687;-74
2021/03/07 03:54:25;;;;;;;7.00;4.63;;;;;;;;;;5034516;28;20204;-74
2021/03/07 03:57:32;;;;;;;9.15;4.63;;;;;;;;;;5054136;28;20655;-74
2021/03/07 04:00:39;;;;;;;7.28;4.38;;;;;;;;;;5053625;28;20224;-73
2021/03/07 04:03:48;;;;;;;7.10;5.07;;;;;;;;;;5033251;28;20204;-74
2021/03/07 04:06:54;;;;;;;10.48;6.10;;;;;;;;;;5053967;28;20184;-73
2021/03/07 04:10:00;;;;;;;7.65;5.43;;;;;;;;;;5033829;28;20220;-74
2021/03/07 04:13:06;;;;;;;8.73;5.47;;;;;;;;;;5034233;28;20173;-73
2021/03/07 04:16:11;;;;;;;9.32;5.53;;;;;;;;;;5032827;28;20181;-74
2021/03/07 04:19:16;;;;;;;10.38;6.00;;;;;;;;;;5033603;28;20185;-74
2021/03/07 04:22:21;;;;;;;18.98;7.32;;;;;;;;;;5036338;28;20184;-73
2021/03/07 04:25:25;;;;;;;10.60;6.45;;;;;;;;;;5040646;28;20670;-74
2021/03/07 04:28:30;;;;;;;13.43;6.63;;;;;;;;;;5021587;28;20521;-74
2021/03/07 04:31:35;;;;;;;10.13;5.38;;;;;;;;;;5021236;28;20572;-73
2021/03/07 04:34:39;;;;;;;7.97;5.30;;;;;;;;;;5025288;28;20196;-73
2021/03/07 04:37:44;;;;;;;8.30;5.75;;;;;;;;;;5044604;28;20193;-74
2021/03/07 04:40:49;;;;;;;10.15;6.25;;;;;;;;;;5021313;28;20217;-73
2021/03/07 04:43:56;;;;;;;12.13;5.75;;;;;;;;;;5033537;28;20181;-73
2021/03/07 04:47:00;;;;;;;9.07;5.57;;;;;;;;;;5034662;28;20192;-73
2021/03/07 04:50:06;;;;;;;7.93;5.70;;;;;;;;;;5052459;28;20216;-72
2021/03/07 04:53:10;;;;;;;7.85;5.50;;;;;;;;;;5033317;28;20624;-73
2021/03/07 04:56:14;;;;;;;9.63;5.38;;;;;;;;;;5033888;28;20212;-74
2021/03/07 04:59:18;;;;;;;6.95;5.28;;;;;;;;;;5052826;28;20196;-73
2021/03/07 05:02:22;;;;;;;9.10;5.53;;;;;;;;;;5045444;28;20524;-72
2021/03/07 05:05:26;;;;;;;7.50;4.80;;;;;;;;;;5027097;28;20543;-75
2021/03/07 05:08:31;;;;;;;9.82;5.65;;;;;;;;;;5053039;28;20184;-74
2021/03/07 05:11:35;;;;;;;8.95;5.43;;;;;;;;;;5052005;28;20220;-75
2021/03/07 05:14:39;;;;;;;9.88;6.07;;;;;;;;;;5021140;28;20192;-74
2021/03/07 05:17:43;;;;;;;10.45;5.13;;;;;;;;;;5032677;28;20204;-73
2021/03/07 05:20:48;;;;;;;9.40;5.80;;;;;;;;;;5020526;28;20224;-73
2021/03/07 05:23:54;;;;;;;10.48;5.65;;;;;;;;;;5033350;28;20184;-72
2021/03/07 05:27:05;;;;;;;9.70;6.05;;;;;;;;;;5021338;28;20181;-72
2021/03/07 05:30:11;;;;;;;11.77;5.22;;;;;;;;;;5032611;28;20545;-73
2021/03/07 05:33:16;;;;;;;7.25;5.05;;;;;;;;;;5032609;28;20185;-73
2021/03/07 05:36:20;;;;;;;9.25;5.47;;;;;;;;;;5013646;28;20189;-74
2021/03/07 05:39:25;;;;;;;9.57;5.25;;;;;;;;;;5032441;28;20196;-73
2021/03/07 05:42:29;;;;;;;8.55;5.20;;;;;;;;;;5020661;28;20169;-72
2021/03/07 05:45:46;;;;;;;10.60;6.45;;;;;;;;;;5038608;28;20205;-72
2021/03/07 05:48:50;;;;;;;13.82;7.22;;;;;;;;;;5042215;28;20184;-73
2021/03/07 05:51:54;;;;;;;11.13;6.57;;;;;;;;;;5033129;28;20173;-73
2021/03/07 05:54:59;;;;;;;10.13;5.63;;;;;;;;;;5046893;28;20204;-73
2021/03/07 05:58:04;;;;;;;9.38;5.50;;;;;;;;;;5020531;28;20181;-72
2021/03/07 06:01:09;;;;;;;11.90;5.65;;;;;;;;;;5035320;28;20224;-72
2021/03/07 06:04:13;;;;;;;8.85;5.53;;;;;;;;;;5046555;28;20560;-73
2021/03/07 06:07:19;;;;;;;7.72;4.95;;;;;;;;;;5036201;28;20181;-73
2021/03/07 06:10:28;;;;;;;15.13;8.10;;;;;;;;;;5035763;28;20217;-72
2021/03/07 06:13:40;;;;;;;24.95;13.23;;;;;;;;;;5023827;28;20188;-74
2021/03/07 06:17:17;;;;;;;20.63;10.82;;;;;;;;;;5055752;28;20191;-73
2021/03/07 06:20:27;;;;;;;11.75;6.85;;;;;;;;;;5012476;28;20235;-73
2021/03/07 06:23:35;;;;;;;12.20;7.10;;;;;;;;;;5035654;28;20196;-74
2021/03/07 06:26:39;;;;;;;12.15;6.63;;;;;;;;;;5054514;28;20188;-73
2021/03/07 06:30:07;;;;;;;10.18;6.03;;;;;;;;;;5031830;28;20196;-73
2021/03/07 06:33:11;;;;;;;10.23;6.45;;;;;;;;;;5041253;28;20622;-73
2021/03/07 06:36:21;;;;;;;10.40;5.90;;;;;;;;;;5035428;28;20205;-73
2021/03/07 06:39:27;;;;;;;11.65;7.07;;;;;;;;;;5035484;28;20185;-73
2021/03/07 06:42:42;;;;;;;11.55;8.18;;;;;;;;;;5033969;28;20577;-73
2021/03/07 06:45:46;;;;;;;14.25;9.55;;;;;;;;;;5035224;28;20192;-73
2021/03/07 06:48:50;;;;;;;14.25;10.18;;;;;;;;;;5033791;28;20528;-73
2021/03/07 06:52:09;;;;;;;12.07;9.47;;;;;;;;;;5038538;28;20543;-73
2021/03/07 06:55:14;;;;;;;12.10;9.07;;;;;;;;;;5055014;28;20610;-73
2021/03/07 06:58:18;;;;;;;12.13;7.70;;;;;;;;;;5033368;28;20596;-73
2021/03/07 07:01:22;;;;;;;12.33;8.43;;;;;;;;;;5024016;28;20651;-74
2021/03/07 07:04:41;;;;;;;12.20;8.57;;;;;;;;;;5034928;28;20560;-74
2021/03/07 07:07:47;;;;;;;11.87;8.33;;;;;;;;;;5023014;28;21079;-73
2021/03/07 07:10:51;;;;;;;17.00;10.53;;;;;;;;;;5032686;28;20642;-73
2021/03/07 07:13:55;;;;;;;15.90;10.57;;;;;;;;;;5054495;28;20579;-74
2021/03/07 07:17:00;;;;;;;14.20;10.17;;;;;;;;;;5031018;28;20903;-75
2021/03/07 07:20:07;;;;;;;13.37;8.90;;;;;;;;;;5034709;28;21007;-73
2021/03/07 07:23:12;;;;;;;11.73;8.77;;;;;;;;;;5026899;28;20579;-73
2021/03/07 07:26:16;;;;;;;13.47;8.23;;;;;;;;;;5030676;28;20579;-73
2021/03/07 07:29:20;;;;;;;10.00;7.40;;;;;;;;;;5046007;28;20579;-72
2021/03/07 07:32:39;;;;;;;10.17;6.43;;;;;;;;;;5030757;28;20547;-73
2021/03/07 07:35:44;;;;;;;10.60;7.00;;;;;;;;;;5022432;28;20532;-73
2021/03/07 07:38:50;;;;;;;11.93;7.57;;;;;;;;;;5034712;28;20928;-73
2021/03/07 07:41:55;;;;;;;8.43;6.70;;;;;;;;;;5038246;28;20635;-73
2021/03/07 07:45:18;;;;;;;9.40;6.67;;;;;;;;;;5026409;28;20611;-74
2021/03/07 07:48:33;;;;;;;10.07;7.00;;;;;;;;;;5053784;28;20594;-73
2021/03/07 07:51:39;;;;;;;9.57;6.00;;;;;;;;;;5053854;28;20626;-72
2021/03/07 07:55:08;;;;;;;9.40;6.20;;;;;;;;;;5051842;28;20613;-73
2021/03/07 07:58:35;;;;;;;10.33;6.67;;;;;;;;;;5064540;28;21073;-72
2021/03/07 08:01:52;;;;;;;11.67;6.67;;;;;;;;;;5038072;28;20666;-74
2021/03/07 08:04:56;;;;;;;10.40;6.30;;;;;;;;;;5032635;28;20598;-73
2021/03/07 08:08:10;;;;;;;10.83;7.03;;;;;;;;;;5046353;28;20590;-73
2021/03/07 08:11:23;;;;;;;9.97;6.07;;;;;;;;;;5041431;28;20650;-73
2021/03/07 08:14:34;;;;;;;9.63;6.50;;;;;;;;;;5040774;28;21180;-74
2021/03/07 08:17:55;;;;;;;9.07;6.20;;;;;;;;;;5053827;28;20551;-73
2021/03/07 08:21:00;;;;;;;8.67;6.33;;;;;;;;;;5044351;28;20662;-73
2021/03/07 08:24:08;;;;;;;11.57;6.30;;;;;;;;;;5033304;28;20552;-74
2021/03/07 08:27:35;;;;;;;10.23;6.87;;;;;;;;;;5041285;28;20531;-74
2021/03/07 08:30:39;;;;;;;12.17;6.90;;;;;;;;;;5034779;28;21180;-74
2021/03/07 08:33:44;;;;;;;9.73;7.13;;;;;;;;;;5036557;28;20591;-74
2021/03/07 08:36:53;;;;;;;10.70;7.43;;;;;;;;;;5033494;28;21050;-74
2021/03/07 08:40:30;;;;;;;8.90;6.63;;;;;;;;;;5041369;28;20647;-74
2021/03/07 08:43:38;;;;;;;12.53;7.60;;;;;;;;;;5027212;28;20583;-74
2021/03/07 08:46:46;;;;;;;9.77;6.77;;;;;;;;;;5037956;28;20614;-73
2021/03/07 08:49:50;;;;;;;9.30;7.00;;;;;;;;;;5043852;28;20220;-73
2021/03/07 08:52:54;;;;;;;9.03;6.67;;;;;;;;;;5052951;28;20176;-73
2021/03/07 08:55:59;;;;;;;8.70;7.10;;;;;;;;;;5043016;28;20225;-74
2021/03/07 08:59:04;;;;;;;7.57;6.47;;;;;;;;;;5024900;28;20659;-74
2021/03/07 09:02:08;;;;;;;12.47;6.70;;;;;;;;;;5040440;28;20686;-74
2021/03/07 09:05:30;;;;;;;10.53;5.83;;;;;;;;;;5028307;28;20197;-72
2021/03/07 09:08:34;;;;;;;9.57;6.73;;;;;;;;;;5051984;28;20200;-74
2021/03/07 09:11:53;;;;;;;8.97;6.73;;;;;;;;;;5053128;28;20215;-74
2021/03/07 09:15:07;;;;;;;13.80;8.17;;;;;;;;;;5040493;28;20200;-74
2021/03/07 09:18:15;;;;;;;10.37;8.23;;;;;;;;;;5028595;28;20197;-74
2021/03/07 09:21:19;;;;;;;11.93;9.63;;;;;;;;;;5070685;22;20230;-72
2021/03/07 09:24:23;;;;;;;7.67;6.60;;;;;;;;;;5072793;28;20183;-72
2021/03/07 09:27:30;;;;;;;16.13;12.60;;;;;;;;;;5080433;28;20580;-72
2021/03/07 09:30:34;;;;;;;8.97;7.23;;;;;;;;;;5080969;28;20225;-72
2021/03/07 09:33:47;;;;;;;8.50;6.90;;;;;;;;;;5092793;28;20190;-73
2021/03/07 09:36:51;;;;;;;9.37;7.10;;;;;;;;;;5091244;28;20195;-72
2021/03/07 09:39:56;;;;;;;9.67;7.20;;;;;;;;;;5091334;28;20218;-72
2021/03/07 09:43:04;;;;;;;8.60;6.87;;;;;;;;;;5084495;28;20673;-72
2021/03/07 09:46:09;;;;;;;12.40;7.03;;;;;;;;;;5096706;28;20522;-72
2021/03/07 09:49:19;;;;;;;8.13;6.63;;;;;;;;;;5077914;28;20203;-72
2021/03/07 09:52:23;;;;;;;9.20;7.60;;;;;;;;;;5084362;28;20192;-72
2021/03/07 09:55:33;;;;;;;9.40;7.43;;;;;;;;;;5063960;28;20180;-72
2021/03/07 09:58:38;;;;;;;8.53;6.63;;;;;;;;;;5094891;28;20195;-72
2021/03/07 10:01:47;;;;;;;8.40;7.53;;;;;;;;;;5082788;28;20227;-72
2021/03/07 10:04:52;;;;;;;9.37;7.87;;;;;;;;;;5063805;28;20203;-73
2021/03/07 10:07:56;;;;;;;11.13;7.23;;;;;;;;;;5077000;28;20196;-72
2021/03/07 10:11:30;;;;;;;9.73;7.57;;;;;;;;;;5075862;28;20211;-72
2021/03/07 10:14:34;;;;;;;10.10;7.50;;;;;;;;;;5066234;28;20662;-72
2021/03/07 10:17:42;;;;;;;10.30;7.60;;;;;;;;;;5089412;28;20195;-72
2021/03/07 10:20:55;;;;;;;9.53;7.20;;;;;;;;;;5095050;28;20558;-73
2021/03/07 10:24:19;;;;;;;10.43;7.90;;;;;;;;;;5082835;28;20184;-72
2021/03/07 10:27:30;;;;;;;9.70;7.60;;;;;;;;;;5077772;28;20175;-73
2021/03/07 10:30:40;;;;;;;10.03;8.20;;;;;;;;;;5066664;28;20713;-72
2021/03/07 10:33:44;;;;;;;10.47;7.87;;;;;;;;;;5075873;28;20184;-73
2021/03/07 10:36:48;;;;;;;11.77;8.10;;;;;;;;;;5075542;28;20176;-73
2021/03/07 10:39:52;;;;;;;10.10;7.83;;;;;;;;;;5075531;28;20219;-73
2021/03/07 10:43:04;;;;;;;11.43;7.97;;;;;;;;;;5075709;28;20207;-73
2021/03/07 10:46:09;;;;;;;9.40;7.97;;;;;;;;;;5062219;28;20539;-74
2021/03/07 10:49:14;;;;;;;9.70;7.77;;;;;;;;;;5062569;28;20188;-73
2021/03/07 10:52:18;;;;;;;10.83;7.97;;;;;;;;;;5063006;28;20658;-74
2021/03/07 10:55:24;;;;;;;20.50;8.93;;;;;;;;;;5062859;28;20194;-73
2021/03/07 10:58:28;;;;;;;12.47;7.70;;;;;;;;;;5075071;28;20175;-72
2021/03/07 11:01:33;;;;;;;13.33;8.40;;;;;;;;;;5074859;28;20219;-73
2021/03/07 11:04:37;;;;;;;9.60;8.10;;;;;;;;;;5075367;28;20180;-73
2021/03/07 11:07:43;;;;;;;12.73;9.03;;;;;;;;;;5075180;28;20179;-73
2021/03/07 11:10:47;;;;;;;11.80;8.90;;;;;;;;;;5062764;28;20215;-73
2021/03/07 11:13:51;;;;;;;10.27;8.77;;;;;;;;;;5062974;28;20637;-73
2021/03/07 11:16:55;;;;;;;10.77;8.77;;;;;;;;;;5075596;28;20188;-72
2021/03/07 11:20:00;;;;;;;10.63;8.63;;;;;;;;;;5095037;28;20565;-73
2021/03/07 11:23:04;;;;;;;11.93;9.17;;;;;;;;;;5094928;28;20214;-72
2021/03/07 11:26:09;;;;;;;10.13;8.47;;;;;;;;;;5088686;28;20203;-72
2021/03/07 11:29:13;;;;;;;13.30;9.30;;;;;;;;;;5075573;28;20664;-72
2021/03/07 11:32:17;;;;;;;11.23;8.60;;;;;;;;;;5059656;28;20625;-72
2021/03/07 11:35:21;;;;;;;12.77;9.10;;;;;;;;;;5074601;28;20183;-72
2021/03/07 11:38:25;;;;;;;12.37;9.13;;;;;;;;;;5054609;28;20176;-73
2021/03/07 11:41:29;;;;;;;11.37;8.60;;;;;;;;;;5079158;28;20549;-73
2021/03/07 11:44:34;;;;;;;12.63;9.37;;;;;;;;;;5081541;28;20183;-72
2021/03/07 11:47:38;;;;;;;12.17;9.20;;;;;;;;;;5077497;28;20183;-72
2021/03/07 11:50:42;;;;;;;21.83;9.17;;;;;;;;;;5082146;28;20218;-72
2021/03/07 11:53:46;;;;;;;11.97;8.67;;;;;;;;;;5094379;28;20179;-72
2021/03/07 11:56:51;;;;;;;14.13;9.07;;;;;;;;;;5081550;28;20191;-72
2021/03/07 11:59:55;;;;;;;11.10;8.77;;;;;;;;;;5030295;28;20220;-73
2021/03/07 12:02:59;;;;;;;10.57;8.57;;;;;;;;;;5041624;28;20203;-73
2021/03/07 12:06:03;;;;;;;10.67;8.33;;;;;;;;;;5041620;28;20184;-73
2021/03/07 12:09:07;;;;;;;12.47;8.83;;;;;;;;;;5053710;28;20203;-72
2021/03/07 12:12:12;;;;;;;13.80;9.30;;;;;;;;;;5070067;28;20191;-73
2021/03/07 12:15:16;;;;;;;12.50;9.70;;;;;;;;;;5080665;28;20183;-72
2021/03/07 12:18:20;;;;;;;13.13;9.53;;;;;;;;;;5094041;28;20175;-72
2021/03/07 12:21:25;;;;;;;13.53;10.17;;;;;;;;;;5072662;28;20234;-73
2021/03/07 12:24:29;;;;;;;13.20;10.20;;;;;;;;;;5093591;28;20248;-73
2021/03/07 12:27:34;;;;;;;13.23;10.33;;;;;;;;;;5093564;28;20186;-73
2021/03/07 12:30:39;;;;;;;14.57;10.43;;;;;;;;;;5075689;28;20222;-73
2021/03/07 12:33:43;;;;;;;12.80;10.10;;;;;;;;;;5053387;28;20649;-73
2021/03/07 12:36:47;;;;;;;14.07;10.80;;;;;;;;;;5059376;28;20209;-73
2021/03/07 12:39:51;;;;;;;17.47;11.43;;;;;;;;;;5083956;28;20229;-72
2021/03/07 12:42:56;;;;;;;17.20;10.57;;;;;;;;;;5059883;28;20218;-74
2021/03/07 12:46:00;;;;;;;13.27;11.43;;;;;;;;;;5041126;28;20634;-75
2021/03/07 12:49:07;;;;;;;13.43;10.00;;;;;;;;;;5041127;28;20187;-75
2021/03/07 12:52:11;;;;;;;14.60;10.53;;;;;;;;;;5056986;28;20192;-75
2021/03/07 12:55:15;;;;;;;21.10;9.53;;;;;;;;;;5093415;28;20186;-75
2021/03/07 12:58:19;;;;;;;13.10;9.77;;;;;;;;;;5069746;28;20175;-76
2021/03/07 13:01:24;;;;;;;13.40;10.07;;;;;;;;;;5069077;28;20214;-76
2021/03/07 13:04:28;;;;;;;13.13;9.07;;;;;;;;;;5050306;28;20206;-76
2021/03/07 13:07:32;;;;;;;13.10;9.27;;;;;;;;;;5076317;28;20183;-76
2021/03/07 13:10:36;;;;;;;15.50;9.60;;;;;;;;;;5064710;28;20223;-74
2021/03/07 13:13:40;;;;;;;11.90;9.10;;;;;;;;;;5082781;28;20661;-73
2021/03/07 13:16:44;;;;;;;14.20;10.53;;;;;;;;;;5083442;28;20190;-73
2021/03/07 13:19:48;;;;;;;19.37;12.20;;;;;;;;;;5056845;28;20226;-74
2021/03/07 13:22:52;;;;;;;12.43;9.70;;;;;;;;;;5071940;28;20214;-73
2021/03/07 13:26:01;;;;;;;13.37;9.93;;;;;;;;;;5044621;28;20545;-73
2021/03/07 13:29:05;;;;;;;14.67;10.20;;;;;;;;;;5044692;28;20211;-74
2021/03/07 13:32:11;;;;;;;28.37;20.27;;;;;;;;;;5044607;28;20547;-74
2021/03/07 13:35:15;;;;;;;14.23;10.03;;;;;;;;;;5056929;28;20190;-73
2021/03/07 13:38:20;;;;;;;13.30;9.77;;;;;;;;;;5056875;28;20207;-73
2021/03/07 13:41:24;;;;;;;14.00;10.20;;;;;;;;;;5032839;28;20220;-73
2021/03/07 13:44:28;;;;;;;14.63;10.30;;;;;;;;;;5056862;28;20211;-74
2021/03/07 13:47:33;;;;;;;14.17;10.23;;;;;;;;;;5056596;28;20192;-74
2021/03/07 13:50:37;;;;;;;13.37;10.33;;;;;;;;;;5056296;28;20582;-73
2021/03/07 13:53:41;;;;;;;17.93;11.27;;;;;;;;;;5056240;28;20202;-73
2021/03/07 13:56:47;;;;;;;14.07;10.67;;;;;;;;;;5044683;28;20214;-73
2021/03/07 13:59:50;;;;;;;13.37;10.30;;;;;;;;;;5044123;28;20223;-73
2021/03/07 14:02:55;;;;;;;12.37;10.23;;;;;;;;;;5044052;28;20219;-73
2021/03/07 14:05:59;;;;;;;14.17;10.50;;;;;;;;;;5044091;28;20215;-73
2021/03/07 14:09:04;;;;;;;12.77;10.40;;;;;;;;;;5056357;28;20179;-73
2021/03/07 14:12:08;;;;;;;13.77;10.53;;;;;;;;;;5056227;28;20180;-73
2021/03/07 14:15:14;;;;;;;13.83;10.33;;;;;;;;;;5056141;28;20176;-73
2021/03/07 14:18:18;;;;;;;34.80;16.87;;;;;;;;;;5055993;28;20207;-73
2021/03/07 14:21:23;;;;;;;15.00;11.33;;;;;;;;;;5043211;28;20617;-73
2021/03/07 14:24:27;;;;;;;20.40;15.70;;;;;;;;;;5043383;28;20211;-73
2021/03/07 14:27:31;;;;;;;12.27;9.70;;;;;;;;;;5055653;28;20207;-73
2021/03/07 14:30:36;;;;;;;13.73;10.60;;;;;;;;;;5055672;28;20216;-74
2021/03/07 14:33:40;;;;;;;14.30;10.40;;;;;;;;;;5055931;28;20547;-73
2021/03/07 14:36:44;;;;;;;15.50;11.30;;;;;;;;;;5043817;28;20184;-73
2021/03/07 14:39:48;;;;;;;15.70;10.93;;;;;;;;;;5043060;28;20713;-73
2021/03/07 14:42:53;;;;;;;12.83;10.20;;;;;;;;;;5055569;28;20184;-73
2021/03/07 14:45:57;;;;;;;17.03;12.80;;;;;;;;;;5055753;28;20532;-73
2021/03/07 14:49:01;;;;;;;18.03;11.53;;;;;;;;;;5055381;28;20181;-74
2021/03/07 14:52:05;;;;;;;15.97;11.57;;;;;;;;;;5043263;28;20649;-73
2021/03/07 14:55:13;;;;;;;21.73;15.93;;;;;;;;;;5055219;28;20176;-73
2021/03/07 14:58:18;;;;;;;16.77;11.77;;;;;;;;;;5055266;28;20196;-73
2021/03/07 15:01:23;;;;;;;17.97;13.10;;;;;;;;;;5054998;28;20220;-73
2021/03/07 15:04:27;;;;;;;18.13;11.97;;;;;;;;;;5042919;28;20208;-73
2021/03/07 15:07:31;;;;;;;16.40;11.53;;;;;;;;;;5054944;28;20515;-73
2021/03/07 15:10:35;;;;;;;17.43;11.67;;;;;;;;;;5054879;28;20707;-73
2021/03/07 15:13:40;;;;;;;15.67;11.60;;;;;;;;;;5054886;28;20521;-73
2021/03/07 15:16:44;;;;;;;15.37;10.80;;;;;;;;;;5042794;28;20176;-72
2021/03/07 15:19:48;;;;;;;16.23;11.57;;;;;;;;;;5054907;28;20219;-73
2021/03/07 15:22:52;;;;;;;16.07;11.73;;;;;;;;;;5060761;28;20184;-73
2021/03/07 15:25:56;;;;;;;15.00;11.00;;;;;;;;;;5042994;28;20528;-73
2021/03/07 15:29:00;;;;;;;15.90;11.50;;;;;;;;;;5054838;28;20184;-73
2021/03/07 15:32:05;;;;;;;18.00;12.30;;;;;;;;;;5054018;28;20180;-73
2021/03/07 15:35:10;;;;;;;16.27;12.03;;;;;;;;;;5054696;28;20184;-74
2021/03/07 15:38:15;;;;;;;15.47;11.43;;;;;;;;;;5042228;28;20180;-73
2021/03/07 15:41:19;;;;;;;16.63;12.23;;;;;;;;;;5054528;28;20220;-73
2021/03/07 15:44:23;;;;;;;15.73;12.00;;;;;;;;;;5054155;28;20208;-73
2021/03/07 15:47:27;;;;;;;16.53;12.40;;;;;;;;;;5054518;28;20634;-73
2021/03/07 15:50:32;;;;;;;16.97;12.13;;;;;;;;;;5054154;28;20215;-73
2021/03/07 15:53:36;;;;;;;18.33;11.90;;;;;;;;;;5054133;28;20520;-73
2021/03/07 15:56:40;;;;;;;16.50;12.40;;;;;;;;;;5042085;28;20183;-73
2021/03/07 15:59:44;;;;;;;26.00;17.13;;;;;;;;;;5057849;28;20191;-74
2021/03/07 16:02:48;;;;;;;30.37;19.03;;;;;;;;;;5057019;28;20211;-73
2021/03/07 16:05:53;;;;;;;48.63;28.07;;;;;;;;;;5079158;28;20187;-73
2021/03/07 16:08:58;;;;;;;35.27;23.53;;;;;;;;;;5094123;28;20202;-73
2021/03/07 16:12:02;;;;;;;45.40;26.97;;;;;;;;;;5093195;28;20187;-73
2021/03/07 16:15:15;;;;;;;29.93;20.00;;;;;;;;;;5083244;28;20183;-73
2021/03/07 16:18:19;;;;;;;29.87;20.07;;;;;;;;;;5069796;28;20191;-73
2021/03/07 16:21:24;;;;;;;25.97;18.07;;;;;;;;;;5086030;28;20226;-73
2021/03/07 16:24:29;;;;;;;36.67;22.17;;;;;;;;;;5093616;28;20687;-73
2021/03/07 16:27:34;;;;;;;57.70;30.50;;;;;;;;;;5076821;28;20187;-74
2021/03/07 16:30:58;;;;;;;37.63;21.00;;;;;;;;;;5064213;28;20223;-74
2021/03/07 16:34:11;;;;;;;29.47;16.63;;;;;;;;;;5073440;28;20176;-73
2021/03/07 16:37:15;;;;;;;21.37;14.60;;;;;;;;;;5086242;28;20195;-73
2021/03/07 16:40:31;;;;;;;20.30;14.57;;;;;;;;;;5070447;28;20706;-73
2021/03/07 16:43:38;;;;;;;19.67;12.70;;;;;;;;;;5073039;28;20188;-73
2021/03/07 16:46:43;;;;;;;17.87;11.40;;;;;;;;;;5076556;28;20183;-75
2021/03/07 16:50:04;;;;;;;16.10;11.33;;;;;;;;;;5073228;28;20219;-74
2021/03/07 16:53:29;;;;;;;14.50;11.37;;;;;;;;;;5043788;28;20184;-74
2021/03/07 16:56:43;;;;;;;22.53;14.30;;;;;;;;;;5053607;28;20514;-74
2021/03/07 16:59:48;;;;;;;23.83;13.47;;;;;;;;;;5069528;28;20222;-73
2021/03/07 17:02:52;;;;;;;20.90;12.97;;;;;;;;;;5063721;28;20179;-73
2021/03/07 17:05:57;;;;;;;19.77;13.27;;;;;;;;;;5063650;28;20199;-74
2021/03/07 17:09:05;;;;;;;24.07;14.07;;;;;;;;;;5073199;28;20200;-74
2021/03/07 17:12:10;;;;;;;18.47;12.83;;;;;;;;;;5073273;28;20195;-73
2021/03/07 17:15:14;;;;;;;17.87;11.97;;;;;;;;;;5072693;28;20172;-75
2021/03/07 17:18:22;;;;;;;18.40;12.10;;;;;;;;;;5080883;28;20183;-73
2021/03/07 17:21:26;;;;;;;17.10;12.33;;;;;;;;;;5080658;28;20218;-74
2021/03/07 17:24:31;;;;;;;18.23;12.60;;;;;;;;;;5052862;28;20204;-73
2021/03/07 17:27:35;;;;;;;17.27;12.30;;;;;;;;;;5041068;28;20635;-73
2021/03/07 17:30:41;;;;;;;19.43;12.27;;;;;;;;;;5066855;28;20214;-72
2021/03/07 17:33:45;;;;;;;17.03;11.70;;;;;;;;;;5093015;28;20195;-73
2021/03/07 17:36:58;;;;;;;17.33;11.33;;;;;;;;;;5093283;28;20187;-73
2021/03/07 17:40:22;;;;;;;17.17;12.17;;;;;;;;;;5064149;28;20215;-72
2021/03/07 17:43:34;;;;;;;17.00;12.57;;;;;;;;;;5064951;28;20581;-73
2021/03/07 17:46:38;;;;;;;16.23;11.43;;;;;;;;;;5040560;28;20531;-73
2021/03/07 17:49:45;;;;;;;15.90;11.80;;;;;;;;;;5062416;28;20596;-73
2021/03/07 17:52:50;;;;;;;16.90;11.93;;;;;;;;;;5078138;28;20937;-73
2021/03/07 17:55:54;;;;;;;19.07;12.97;;;;;;;;;;5073326;28;20597;-73
2021/03/07 17:58:58;;;;;;;17.77;11.83;;;;;;;;;;5070764;28;21224;-73
2021/03/07 18:02:03;;;;;;;17.60;11.00;;;;;;;;;;5071375;28;20620;-73
2021/03/07 18:05:09;;;;;;;18.10;12.27;;;;;;;;;;5083966;28;20589;-73
2021/03/07 18:08:13;;;;;;;18.63;12.30;;;;;;;;;;5083868;28;21094;-73
2021/03/07 18:11:17;;;;;;;20.87;13.53;;;;;;;;;;5066837;28;20645;-73
2021/03/07 18:14:22;;;;;;;17.53;12.47;;;;;;;;;;5089659;28;20616;-73
2021/03/07 18:17:26;;;;;;;19.07;11.80;;;;;;;;;;5096120;28;20592;-73
2021/03/07 18:20:32;;;;;;;18.37;11.60;;;;;;;;;;5086890;28;20644;-74
2021/03/07 18:23:36;;;;;;;16.57;11.97;;;;;;;;;;5076133;28;20613;-73